TAF Text Data
IDs:
Format:
Raw Decoded Include METAR

Data at: 2211 UTC 02 Aug 2021

KPDK 021744Z 0218/0318 31005KT P6SM SCT050 SCT120
  FM022300 33005KT P6SM VCSH SCT050 OVC150
  FM030300 VRB03KT P6SM VCSH SCT050 OVC080
  PROB30 0303/0309 5SM -SHRA BR BKN030
  FM030900 00000KT P6SM VCSH BKN025 OVC050
  FM031200 06004KT P6SM VCSH BKN025 OVC040
  FM031600 06006KT P6SM -SHRA BKN012